• Join FlightAware (Why Join?)
  • Login
  • US Flag 
02:30PM EST


 

Airport Tracker/Info


-or-


 

Live Flight TrackerFlight Track Log ✈ N525J ✈ 20-Jun-2013 ✈ KMGN - 10G

Flight Track Log - Related Links

Times and Time Zones

All times are in EDT time to prevent confusion due to time zone crossing. See the N525J flight status page for this flight to view local times or setup timezone preferences in your user account.

Time Position Orientation Groundspeed Altitude Reporting Facility
EDT Latitude Longitude Course Direction KTS MPH feet Rate Location/Type
04:48PM 45.3042 -84.9400 157° South 213 245 8,000  Level Minneapolis Center
04:49PM 45.2314 -84.8981 158° South 223 257 10,600 2,220 Climbing Minneapolis Center
04:50PM 45.1642 -84.8597 158° South 237 273 12,600 1,980 Climbing Minneapolis Center
04:51PM 45.0844 -84.8156 159° South 280 322 14,800 1,980 Climbing Minneapolis Center
04:52PM 45.0156 -84.7758 158° South 272 313 16,800 1,920 Climbing Minneapolis Center
04:53PM 44.9403 -84.7333 158° South 272 313 18,800 1,920 Climbing Minneapolis Center
04:54PM 44.8719 -84.6944 158° South 269 310 20,800 1,980 Climbing Minneapolis Center
04:55PM 44.7981 -84.6514 158° South 260 299 23,000 1,980 Climbing Minneapolis Center
04:56PM 44.7317 -84.6142 158° South 258 297 24,900 1,680 Climbing Minneapolis Center
04:58PM 44.6661 -84.5786 159° South 254 292 26,500 1,440 Climbing Minneapolis Center
04:59PM 44.6003 -84.5408 158° South 253 291 28,000 1,440 Climbing Minneapolis Center
05:00PM 44.5347 -84.5044 158° South 254 292 29,500 1,200 Climbing Minneapolis Center
05:01PM 44.4675 -84.4675 159° South 258 297 30,500 900 Climbing Minneapolis Center
05:02PM 44.3783 -84.4178 158° South 282 325 31,400 840 Climbing Minneapolis Center
05:03PM 44.3019 -84.3611 152° Southeast 303 349 32,300 780 Climbing Minneapolis Center
05:04PM 44.2200 -84.3069 155° Southeast 321 369 33,100 720 Climbing Minneapolis Center
05:05PM 44.1353 -84.2494 154° Southeast 333 383 33,900 840 Climbing Minneapolis Center
05:06PM 44.0511 -84.1922 154° Southeast 336 387 34,900 480 Climbing Minneapolis Center
05:07PM 43.9675 -84.1347 154° Southeast 334 384 35,000  Climbing Minneapolis Center
05:08PM 43.8697 -84.0694 154° Southeast 353 406 35,000  Level Minneapolis Center
05:09PM 43.7756 -84.0058 154° Southeast 368 423 35,000  Level Minneapolis Center
05:10PM 43.6794 -83.9408 154° Southeast 379 436 35,000  Level Minneapolis Center
05:11PM 43.5644 -83.8642 154° Southeast 382 440 35,000  Level Minneapolis Center
05:12PM 43.4689 -83.8003 154° Southeast 382 440 35,000 -420 Level Minneapolis Center
05:13PM 43.3711 -83.7361 154° Southeast 385 443 34,200 -960 Descending Minneapolis Center
05:14PM 43.2686 -83.6678 154° Southeast 400 460 33,100 -600 Descending Minneapolis Center
05:15PM 43.1625 -83.6031 156° South 404 465 33,000 -600 Descending Cleveland Center
05:16PM 43.0644 -83.5358 153° Southeast 399 459 32,000 -1,020 Descending Cleveland Center
05:17PM 42.9597 -83.4683 155° Southeast 404 465 31,000 -540 Descending Cleveland Center
05:18PM 42.8592 -83.4014 154° Southeast 404 465 31,000  Level Cleveland Center
05:19PM 42.7567 -83.3347 154° Southeast 404 465 31,000  Level Cleveland Center
05:20PM 42.6600 -83.2739 155° Southeast 398 458 31,000 -240 Level Cleveland Center
05:21PM 42.5617 -83.2078 154° Southeast 393 452 30,600 -960 Descending Cleveland Center
05:22PM 42.4589 -83.1414 155° Southeast 398 458 29,100 -1,500 Descending Cleveland Center
05:23PM 42.3497 -83.0753 156° South 413 475 27,600 -1,080 Descending Cleveland Center
05:24PM 42.2469 -83.0094 155° Southeast 413 475 27,000 -300 Descending Cleveland Center
05:25PM 42.1483 -82.9442 154° Southeast 413 475 27,000 -60 Level Cleveland Center
05:26PM 42.0494 -82.8844 156° South 402 463 26,900 -960 Descending Cleveland Center
05:27PM 41.9506 -82.8222 155° Southeast 396 456 25,100 -960 Descending Cleveland Center
05:28PM 41.8539 -82.7603 154° Southeast 391 450 25,000 -60 Descending Cleveland Center
05:29PM 41.7611 -82.7044 156° South 378 435 25,000  Level Cleveland Center
05:30PM 41.6581 -82.6397 155° Southeast 378 435 25,000  Level Cleveland Center
05:31PM 41.5736 -82.5844 154° Southeast 378 435 25,000  Level Cleveland Center
05:32PM 41.4764 -82.5258 156° South 378 435 25,000  Level Cleveland Center
05:33PM 41.3817 -82.4678 155° Southeast 378 435 25,100  Climbing Cleveland Center
05:34PM 41.2844 -82.4097 156° South 378 435 25,000 -120 Descending Cleveland Center
05:35PM 41.1894 -82.3519 155° Southeast 378 435 24,900 -540 Descending Cleveland Center
05:36PM 41.0925 -82.2914 155° Southeast 373 429 24,000 -1,620 Descending Cleveland Center
05:37PM 41.0167 -82.2094 141° Southeast 346 398 21,700 -3,000 Descending Cleveland Center
05:38PM 40.9469 -82.1169 135° Southeast 351 404 18,000 -3,960 Descending Cleveland Center
05:39PM 40.8856 -82.0333 134° Southeast 334 384 13,800 -3,420 Descending Cleveland Center
05:40PM 40.8214 -81.9878 152° Southeast 296 341 11,200 -1,440 Descending Cleveland Center
05:41PM 40.7464 -81.9808 176° South 261 300 11,000 -1,740 Descending Cleveland Center
05:43PM 40.6244 -81.9658 175° South 253 291 6,400 -2,580 Descending Indianapolis Center